createdAt,value
2022-10-04T00:05:09.329Z,3.10
2022-10-04T00:12:08.944Z,4.20
2022-10-04T00:18:51.309Z,3.10
2022-10-04T00:26:02.824Z,2.60
2022-10-04T00:33:08.957Z,3.40
2022-10-04T00:39:44.185Z,2.90
2022-10-04T00:46:48.227Z,2.90
2022-10-04T00:53:53.207Z,2.30
2022-10-04T01:00:44.077Z,2.40
2022-10-04T01:07:36.209Z,2.80
2022-10-04T01:14:46.776Z,2.80
2022-10-04T01:22:01.747Z,3.50
2022-10-04T01:28:57.546Z,4.40
2022-10-04T01:36:00.917Z,3.40
2022-10-04T01:42:54.614Z,3.90
2022-10-04T01:49:51.576Z,3.50
2022-10-04T01:56:54.851Z,2.90
2022-10-04T02:03:58.248Z,3.80
2022-10-04T02:11:04.264Z,2.40
2022-10-04T02:18:07.630Z,3.20
2022-10-04T02:24:24.810Z,3.00
2022-10-04T02:31:16.816Z,3.60
2022-10-04T02:38:11.771Z,3.10
2022-10-04T02:45:29.377Z,2.60
2022-10-04T02:52:34.211Z,2.90
2022-10-04T02:59:36.338Z,3.00
2022-10-04T03:06:33.808Z,1.90
2022-10-04T03:13:30.001Z,2.70
2022-10-04T03:20:08.486Z,2.50
2022-10-04T03:27:13.687Z,2.60
2022-10-04T03:34:06.415Z,3.00
2022-10-04T03:40:36.312Z,2.90
2022-10-04T03:47:37.130Z,3.40
2022-10-04T03:54:31.663Z,3.50
2022-10-04T04:01:06.449Z,3.00
2022-10-04T04:07:47.699Z,3.60
2022-10-04T04:14:45.707Z,2.70
2022-10-04T04:21:20.768Z,2.90
2022-10-04T04:27:48.528Z,3.50
2022-10-04T04:34:31.704Z,3.10
2022-10-04T04:40:45.655Z,2.70
2022-10-04T04:47:27.956Z,2.90
2022-10-04T04:54:06.868Z,3.30
2022-10-04T05:00:29.023Z,3.80
2022-10-04T05:07:28.145Z,3.50
2022-10-04T05:13:40.336Z,3.10
2022-10-04T05:20:28.930Z,2.80
2022-10-04T05:27:34.778Z,2.90
2022-10-04T05:34:31.114Z,3.30
2022-10-04T05:41:01.600Z,2.90
2022-10-04T05:47:57.993Z,4.00
2022-10-04T05:54:57.797Z,4.30
2022-10-04T06:02:02.726Z,4.30
2022-10-04T06:08:42.005Z,3.10
2022-10-04T06:15:23.323Z,3.50
2022-10-04T06:22:41.145Z,3.10
2022-10-04T06:29:22.440Z,3.10
2022-10-04T06:36:33.458Z,2.90
2022-10-04T06:43:45.776Z,2.90
2022-10-04T06:50:40.673Z,2.30
2022-10-04T06:57:36.936Z,2.60
2022-10-04T07:05:06.972Z,2.40
2022-10-04T07:11:55.610Z,2.60
2022-10-04T07:19:03.929Z,2.90
2022-10-04T07:26:22.650Z,1.70
2022-10-04T07:33:24.431Z,1.60
2022-10-04T07:40:11.772Z,1.90
2022-10-04T07:47:17.836Z,1.50
2022-10-04T07:53:52.293Z,1.30
2022-10-04T08:00:43.990Z,1.70
2022-10-04T08:07:48.839Z,2.20
2022-10-04T08:15:12.793Z,1.70
2022-10-04T08:21:40.583Z,1.20
2022-10-04T08:28:42.264Z,1.30
2022-10-04T08:35:43.906Z,1.50
2022-10-04T08:43:03.765Z,1.70
2022-10-04T08:50:22.751Z,1.60
2022-10-04T08:56:59.347Z,1.20
2022-10-04T09:03:36.675Z,1.60
2022-10-04T09:09:54.832Z,1.50
2022-10-04T09:16:35.850Z,1.50
2022-10-04T09:23:23.519Z,1.20
2022-10-04T09:29:57.896Z,1.80
2022-10-04T09:36:40.308Z,1.30
2022-10-04T09:43:14.686Z,1.10
2022-10-04T09:50:15.033Z,1.70
2022-10-04T09:56:35.880Z,1.00
2022-10-04T10:03:33.814Z,1.10
2022-10-04T10:10:43.602Z,1.40
2022-10-04T10:17:15.306Z,1.10
2022-10-04T10:24:02.525Z,1.40
2022-10-04T10:31:20.842Z,1.80
2022-10-04T10:38:02.302Z,1.20
2022-10-04T10:44:27.037Z,1.20
2022-10-04T10:51:11.413Z,1.00
2022-10-04T10:56:46.918Z,1.00
2022-10-04T11:03:53.800Z,0.90
2022-10-04T11:10:52.065Z,0.90
2022-10-04T11:17:28.580Z,1.00
2022-10-04T11:24:14.710Z,1.20
2022-10-04T11:30:20.914Z,0.80
2022-10-04T11:36:48.598Z,1.40
2022-10-04T11:43:24.412Z,1.20
2022-10-04T11:49:41.145Z,1.10
2022-10-04T11:55:57.286Z,1.10
2022-10-04T12:01:45.005Z,0.90
2022-10-04T12:07:36.459Z,1.40
2022-10-04T12:14:13.358Z,1.20
2022-10-04T12:21:32.175Z,0.90
2022-10-04T12:28:11.268Z,1.50
2022-10-04T12:34:42.017Z,1.00
2022-10-04T12:40:39.431Z,1.50
2022-10-04T12:47:18.882Z,1.70
2022-10-04T12:53:19.582Z,1.20
2022-10-04T12:59:52.792Z,1.40
2022-10-04T13:05:38.150Z,1.10
2022-10-04T13:12:12.874Z,1.20
2022-10-04T13:19:09.968Z,1.00
2022-10-04T13:26:02.792Z,1.40
2022-10-04T13:32:47.263Z,0.90
2022-10-04T13:38:57.092Z,1.40
2022-10-04T13:44:50.365Z,1.30
2022-10-04T13:50:29.017Z,1.30
2022-10-04T13:57:44.719Z,1.60
2022-10-04T14:03:23.952Z,1.40
2022-10-04T14:09:44.452Z,1.30
2022-10-04T14:16:18.842Z,1.20
2022-10-04T14:23:08.661Z,1.40
2022-10-04T14:29:12.640Z,1.50
2022-10-04T14:35:23.513Z,1.60
2022-10-04T14:41:32.777Z,3.10
2022-10-04T14:47:50.437Z,1.60
2022-10-04T14:54:29.712Z,1.90
2022-10-04T15:00:59.351Z,1.60
2022-10-04T15:12:02.401Z,2.90
2022-10-04T15:17:26.054Z,2.10
2022-10-04T15:23:15.125Z,2.10
2022-10-04T15:28:56.860Z,2.10
2022-10-04T15:34:48.008Z,2.30
2022-10-04T15:40:20.485Z,2.40
2022-10-04T15:46:22.258Z,2.30
2022-10-04T15:52:09.741Z,2.60
2022-10-04T15:58:07.854Z,2.40
2022-10-04T16:04:35.660Z,2.70
2022-10-04T16:10:07.297Z,3.10
2022-10-04T16:16:06.415Z,2.80
2022-10-04T16:21:47.853Z,4.00
2022-10-04T16:28:17.650Z,3.90
2022-10-04T16:33:55.455Z,3.00
2022-10-04T16:39:20.716Z,3.70
2022-10-04T16:45:47.436Z,4.10
2022-10-04T16:51:52.944Z,4.60
2022-10-04T16:57:19.757Z,4.50
2022-10-04T17:03:13.377Z,6.40
2022-10-04T17:09:15.630Z,3.90
2022-10-04T17:15:29.512Z,4.70
2022-10-04T17:21:10.699Z,5.70
2022-10-04T17:27:14.023Z,6.20
2022-10-04T17:32:51.910Z,5.20
2022-10-04T17:38:15.100Z,5.80
2022-10-04T17:43:46.760Z,6.50
2022-10-04T17:50:01.233Z,7.20
2022-10-04T17:56:05.025Z,9.00
2022-10-04T18:02:02.823Z,10.00
2022-10-04T18:08:09.297Z,8.50
2022-10-04T18:13:46.743Z,9.10
2022-10-04T18:19:05.902Z,8.50
2022-10-04T18:24:30.630Z,9.30
2022-10-04T18:30:01.532Z,7.90
2022-10-04T18:35:39.201Z,8.90
2022-10-04T18:42:14.007Z,10.60
2022-10-04T18:48:11.593Z,12.40
2022-10-04T18:54:28.962Z,11.90
2022-10-04T19:00:33.831Z,12.50
2022-10-04T19:05:55.311Z,20.20
2022-10-04T19:11:13.950Z,19.50
2022-10-04T19:17:26.426Z,17.90
2022-10-04T19:23:32.211Z,17.50
2022-10-04T19:28:37.761Z,23.50
2022-10-04T19:34:15.743Z,18.50
2022-10-04T19:40:04.087Z,16.80
2022-10-04T19:46:09.575Z,14.40
2022-10-04T19:51:59.326Z,13.00
2022-10-04T19:58:24.306Z,13.30
2022-10-04T20:03:31.775Z,13.90
2022-10-04T20:09:55.612Z,14.00
2022-10-04T20:16:21.495Z,13.90
2022-10-04T20:21:33.435Z,14.10
2022-10-04T20:27:13.093Z,14.30
2022-10-04T20:32:58.516Z,13.90
2022-10-04T20:38:31.679Z,13.20
2022-10-04T20:44:01.532Z,13.10
2022-10-04T20:49:05.817Z,15.70
2022-10-04T20:54:32.956Z,16.60
2022-10-04T21:00:04.756Z,17.60
2022-10-04T21:06:25.379Z,17.80
2022-10-04T21:12:24.158Z,17.10
2022-10-04T21:18:45.997Z,15.10
2022-10-04T21:24:32.414Z,14.70
2022-10-04T21:30:16.180Z,13.10
2022-10-04T21:35:44.927Z,15.40
2022-10-04T21:41:16.260Z,17.40
2022-10-04T21:46:25.454Z,18.30
2022-10-04T21:51:28.191Z,21.00
2022-10-04T21:57:24.921Z,22.10
2022-10-04T22:03:17.610Z,20.00
2022-10-04T22:08:53.583Z,23.50
2022-10-04T22:14:57.482Z,23.80
2022-10-04T22:21:28.273Z,23.40
2022-10-04T22:28:02.211Z,23.20
2022-10-04T22:33:42.274Z,22.80
2022-10-04T22:39:31.139Z,26.10
2022-10-04T22:44:41.454Z,21.20
2022-10-04T22:50:27.418Z,22.90
2022-10-04T22:56:33.195Z,21.50
2022-10-04T23:02:14.668Z,20.50
2022-10-04T23:08:26.421Z,19.50
2022-10-04T23:14:03.181Z,18.80
2022-10-04T23:20:20.450Z,18.70
2022-10-04T23:25:32.628Z,19.80
2022-10-04T23:32:04.498Z,20.30
2022-10-04T23:37:42.915Z,19.10
2022-10-04T23:43:15.376Z,18.50
2022-10-04T23:48:40.588Z,19.30
2022-10-04T23:53:51.959Z,18.60
2022-10-04T23:58:57.081Z,18.50
